createdAt,value
2022-08-05T00:02:21.726Z,43.96
2022-08-05T00:04:55.538Z,43.86
2022-08-05T00:07:59.451Z,44.00
2022-08-05T00:10:11.746Z,43.91
2022-08-05T00:12:55.992Z,43.82
2022-08-05T00:15:55.850Z,44.10
2022-08-05T00:18:15.082Z,43.72
2022-08-05T00:20:49.895Z,43.75
2022-08-05T00:23:44.522Z,43.67
2022-08-05T00:26:05.903Z,43.82
2022-08-05T00:28:33.114Z,44.18
2022-08-05T00:31:04.219Z,44.08
2022-08-05T00:34:53.820Z,44.02
2022-08-05T00:37:11.754Z,44.18
2022-08-05T00:39:13.644Z,44.14
2022-08-05T00:41:51.889Z,44.28
2022-08-05T00:44:30.937Z,44.16
2022-08-05T00:47:04.153Z,44.84
2022-08-05T00:49:51.080Z,44.65
2022-08-05T00:52:28.405Z,45.11
2022-08-05T00:54:56.297Z,46.18
2022-08-05T00:57:25.426Z,45.37
2022-08-05T01:00:07.317Z,46.00
2022-08-05T01:02:38.419Z,46.46
2022-08-05T01:05:09.983Z,46.22
2022-08-05T01:07:37.479Z,45.83
2022-08-05T01:10:31.683Z,45.86
2022-08-05T01:13:13.096Z,44.95
2022-08-05T01:15:47.843Z,45.75
2022-08-05T01:18:23.950Z,46.19
2022-08-05T01:21:00.447Z,46.40
2022-08-05T01:23:39.645Z,46.88
2022-08-05T01:26:17.899Z,47.55
2022-08-05T01:29:03.487Z,47.36
2022-08-05T01:31:53.144Z,47.68
2022-08-05T01:34:26.845Z,47.55
2022-08-05T01:37:02.937Z,48.20
2022-08-05T01:39:46.471Z,48.07
2022-08-05T01:42:19.415Z,47.70
2022-08-05T01:44:54.136Z,47.45
2022-08-05T01:47:24.248Z,47.37
2022-08-05T01:50:01.977Z,47.55
2022-08-05T01:52:32.628Z,47.82
2022-08-05T01:55:04.394Z,48.26
2022-08-05T01:58:10.465Z,47.97
2022-08-05T02:00:30.524Z,48.45
2022-08-05T02:03:04.093Z,49.08
2022-08-05T02:05:35.920Z,48.60
2022-08-05T02:08:05.379Z,48.86
2022-08-05T02:10:52.407Z,48.94
2022-08-05T02:13:53.403Z,48.82
2022-08-05T02:16:25.304Z,49.45
2022-08-05T02:19:02.835Z,49.84
2022-08-05T02:21:43.141Z,49.71
2022-08-05T02:24:18.519Z,49.91
2022-08-05T02:26:51.918Z,49.46
2022-08-05T02:29:26.031Z,50.04
2022-08-05T02:32:11.800Z,51.32
2022-08-05T02:34:54.703Z,51.28
2022-08-05T02:37:24.056Z,50.70
2022-08-05T02:39:53.602Z,51.00
2022-08-05T02:42:27.681Z,52.16
2022-08-05T02:45:01.427Z,52.27
2022-08-05T02:48:06.918Z,51.92
2022-08-05T02:50:19.151Z,51.27
2022-08-05T02:52:47.294Z,51.98
2022-08-05T02:55:17.572Z,52.81
2022-08-05T03:00:55.977Z,52.96
2022-08-05T03:03:23.923Z,53.54
2022-08-05T03:06:56.735Z,52.72
2022-08-05T03:08:42.817Z,53.37
2022-08-05T03:11:54.521Z,53.62
2022-08-05T03:14:13.539Z,53.99
2022-08-05T03:16:41.103Z,53.70
2022-08-05T03:19:16.919Z,53.25
2022-08-05T03:21:48.691Z,52.45
2022-08-05T03:24:27.523Z,53.62
2022-08-05T03:26:58.973Z,53.76
2022-08-05T03:29:45.635Z,52.32
2022-08-05T03:32:19.480Z,54.03
2022-08-05T03:34:49.607Z,53.90
2022-08-05T03:37:20.973Z,53.72
2022-08-05T03:40:01.687Z,53.75
2022-08-05T03:42:41.578Z,53.88
2022-08-05T03:45:22.727Z,53.92
2022-08-05T03:47:51.539Z,54.06
2022-08-05T03:50:19.298Z,54.20
2022-08-05T03:55:34.740Z,54.00
2022-08-05T03:56:10.168Z,54.36
2022-08-05T03:58:42.681Z,54.27
2022-08-05T04:01:14.705Z,54.82
2022-08-05T04:04:09.781Z,55.19
2022-08-05T04:06:35.205Z,54.75
2022-08-05T04:09:06.023Z,54.25
2022-08-05T04:11:50.801Z,53.58
2022-08-05T04:14:30.437Z,53.94
2022-08-05T04:17:00.334Z,54.02
2022-08-05T04:19:29.023Z,53.42
2022-08-05T04:22:08.320Z,54.32
2022-08-05T04:24:43.885Z,53.77
2022-08-05T04:27:13.556Z,53.37
2022-08-05T04:29:41.511Z,53.46
2022-08-05T04:32:09.752Z,53.50
2022-08-05T04:34:43.117Z,53.41
2022-08-05T04:37:10.953Z,53.11
2022-08-05T04:39:39.147Z,52.85
2022-08-05T04:42:07.747Z,53.18
2022-08-05T04:44:36.522Z,53.03
2022-08-05T04:47:09.618Z,52.45
2022-08-05T04:50:01.402Z,52.38
2022-08-05T04:52:27.689Z,52.49
2022-08-05T04:54:57.405Z,52.63
2022-08-05T04:57:28.655Z,52.42
2022-08-05T04:59:58.504Z,52.73
2022-08-05T05:02:36.432Z,53.25
2022-08-05T05:05:26.309Z,52.99
2022-08-05T05:07:56.430Z,54.11
2022-08-05T05:10:29.719Z,52.08
2022-08-05T05:12:57.659Z,49.93
2022-08-05T05:15:57.832Z,47.77
2022-08-05T05:21:06.313Z,45.03
2022-08-05T05:24:02.015Z,44.00
2022-08-05T05:26:28.299Z,43.53
2022-08-05T05:29:02.762Z,42.60
2022-08-05T05:31:41.797Z,42.17
2022-08-05T05:34:13.801Z,41.22
2022-08-05T05:36:42.702Z,39.77
2022-08-05T05:39:13.234Z,38.29
2022-08-05T05:41:41.958Z,38.42
2022-08-05T05:44:36.871Z,37.41
2022-08-05T05:46:57.906Z,35.00
2022-08-05T05:49:25.513Z,35.07
2022-08-05T05:51:53.877Z,35.63
2022-08-05T05:57:19.005Z,32.31
2022-08-05T05:59:48.807Z,33.58
2022-08-05T06:02:16.339Z,32.29
2022-08-05T06:04:44.265Z,32.55
2022-08-05T06:07:16.607Z,34.49
2022-08-05T06:10:01.623Z,31.06
2022-08-05T06:12:32.057Z,32.57
2022-08-05T06:15:01.658Z,30.81
2022-08-05T06:17:31.107Z,30.46
2022-08-05T06:20:21.377Z,29.95
2022-08-05T06:22:49.067Z,31.53
2022-08-05T06:25:59.016Z,31.32
2022-08-05T06:28:11.762Z,29.35
2022-08-05T06:30:48.172Z,29.58
2022-08-05T06:33:19.203Z,29.05
2022-08-05T06:36:03.686Z,30.49
2022-08-05T06:38:36.013Z,28.81
2022-08-05T06:41:07.949Z,28.19
2022-08-05T06:43:57.478Z,28.54
2022-08-05T06:46:29.715Z,31.11
2022-08-05T06:48:59.256Z,27.64
2022-08-05T06:51:31.029Z,29.16
2022-08-05T06:54:01.926Z,28.79
2022-08-05T06:56:30.326Z,27.51
2022-08-05T06:59:08.442Z,28.29
2022-08-05T07:01:36.705Z,28.90
2022-08-05T07:04:04.089Z,27.03
2022-08-05T07:06:32.103Z,26.49
2022-08-05T07:09:04.271Z,27.17
2022-08-05T07:11:37.086Z,25.98
2022-08-05T07:14:29.739Z,23.46
2022-08-05T07:17:59.946Z,25.35
2022-08-05T07:22:41.983Z,24.38
2022-08-05T07:25:54.332Z,22.75
2022-08-05T07:28:04.244Z,22.72
2022-08-05T07:30:39.249Z,23.48
2022-08-05T07:33:16.566Z,22.12
2022-08-05T07:36:03.941Z,22.97
2022-08-05T07:38:42.785Z,24.50
2022-08-05T07:41:35.183Z,23.75
2022-08-05T07:44:05.116Z,23.13
2022-08-05T07:46:33.790Z,21.99
2022-08-05T07:49:05.997Z,21.15
2022-08-05T07:51:37.240Z,20.42
2022-08-05T07:54:33.563Z,22.67
2022-08-05T07:57:22.579Z,20.93
2022-08-05T07:59:49.721Z,21.19
2022-08-05T08:02:18.065Z,22.20
2022-08-05T08:04:47.455Z,20.43
2022-08-05T08:07:15.099Z,21.04
2022-08-05T08:09:43.384Z,21.05
2022-08-05T08:12:33.472Z,21.13
2022-08-05T08:15:02.651Z,21.06
2022-08-05T08:17:32.536Z,20.90
2022-08-05T08:20:21.697Z,21.85
2022-08-05T08:22:59.413Z,20.83
2022-08-05T08:25:59.140Z,20.77
2022-08-05T08:28:37.016Z,20.07
2022-08-05T08:31:17.620Z,20.48
2022-08-05T08:33:45.972Z,20.00
2022-08-05T08:36:39.284Z,21.46
2022-08-05T08:39:15.679Z,19.25
2022-08-05T08:42:00.010Z,19.20
2022-08-05T08:45:20.945Z,19.03
2022-08-05T08:48:06.805Z,19.33
2022-08-05T08:50:29.877Z,19.08
2022-08-05T08:53:08.206Z,19.24
2022-08-05T08:56:03.384Z,19.42
2022-08-05T08:58:43.981Z,19.81
2022-08-05T09:01:18.126Z,19.21
2022-08-05T09:03:48.187Z,18.60
2022-08-05T09:06:21.433Z,18.49
2022-08-05T09:08:51.565Z,19.61
2022-08-05T09:11:18.919Z,17.69
2022-08-05T09:14:54.087Z,17.98
2022-08-05T09:16:54.066Z,18.52
2022-08-05T09:19:21.519Z,19.50
2022-08-05T09:22:17.734Z,18.73
2022-08-05T09:24:44.869Z,19.51
2022-08-05T09:28:04.345Z,20.14
2022-08-05T09:30:19.217Z,21.95
2022-08-05T09:32:51.795Z,20.25
2022-08-05T09:35:27.241Z,20.60
2022-08-05T09:38:16.593Z,21.76
2022-08-05T09:40:52.678Z,21.75
2022-08-05T09:43:41.822Z,22.91
2022-08-05T09:46:30.150Z,21.82
2022-08-05T09:49:07.241Z,20.84
2022-08-05T09:51:38.218Z,21.29
2022-08-05T09:54:09.508Z,21.43
2022-08-05T09:56:38.812Z,22.56
2022-08-05T09:59:17.141Z,22.59
2022-08-05T10:01:46.534Z,22.49
2022-08-05T10:04:16.180Z,22.88
2022-08-05T10:06:59.609Z,23.67
2022-08-05T10:09:29.806Z,24.20
2022-08-05T10:12:30.088Z,24.97
2022-08-05T10:15:25.615Z,24.43
2022-08-05T10:18:14.654Z,23.81
2022-08-05T10:20:50.930Z,24.19
2022-08-05T10:23:55.418Z,23.26
2022-08-05T10:26:15.007Z,23.34
2022-08-05T10:28:45.097Z,23.15
2022-08-05T10:32:49.556Z,23.00
2022-08-05T10:34:03.887Z,24.86
2022-08-05T10:36:36.753Z,24.19
2022-08-05T10:39:25.027Z,23.73
2022-08-05T10:42:13.302Z,23.99
2022-08-05T10:44:45.826Z,25.58
2022-08-05T10:47:27.061Z,23.56
2022-08-05T10:50:31.834Z,24.39
2022-08-05T10:52:58.525Z,24.11
2022-08-05T10:55:27.385Z,24.74
2022-08-05T10:58:11.665Z,24.00
2022-08-05T11:00:47.357Z,24.12
2022-08-05T11:03:24.341Z,23.85
2022-08-05T11:06:15.407Z,23.85
2022-08-05T11:09:13.169Z,24.17
2022-08-05T11:11:53.591Z,24.21
2022-08-05T11:14:57.710Z,24.20
2022-08-05T11:18:00.250Z,24.60
2022-08-05T11:20:41.969Z,25.25
2022-08-05T11:24:02.832Z,24.69
2022-08-05T11:26:28.904Z,24.60
2022-08-05T11:29:12.699Z,24.12
2022-08-05T11:31:54.260Z,24.83
2022-08-05T11:34:51.739Z,25.60
2022-08-05T11:38:36.447Z,24.29
2022-08-05T11:41:34.526Z,24.10
2022-08-05T11:44:05.932Z,24.13
2022-08-05T11:47:09.615Z,24.03
2022-08-05T11:49:34.634Z,23.92
2022-08-05T11:52:11.460Z,25.28
2022-08-05T11:54:40.461Z,25.46
2022-08-05T11:57:24.455Z,23.84
2022-08-05T11:59:56.147Z,23.41
2022-08-05T12:02:33.177Z,24.34
2022-08-05T12:05:06.775Z,25.27
2022-08-05T12:08:07.462Z,25.09
2022-08-05T12:10:38.396Z,23.48
2022-08-05T12:13:27.755Z,23.59
2022-08-05T12:16:14.615Z,23.77
2022-08-05T12:18:48.961Z,24.29
2022-08-05T12:21:26.890Z,23.81
2022-08-05T12:24:04.620Z,24.33
2022-08-05T12:26:43.894Z,23.41
2022-08-05T12:29:17.945Z,25.54
2022-08-05T12:31:53.688Z,25.78
2022-08-05T12:34:25.767Z,24.37
2022-08-05T12:36:55.025Z,24.09
2022-08-05T12:39:34.646Z,24.46
2022-08-05T12:45:09.837Z,24.38
2022-08-05T12:47:37.964Z,24.80
2022-08-05T12:50:17.673Z,24.69
2022-08-05T12:52:59.697Z,24.53
2022-08-05T12:55:32.495Z,24.35
2022-08-05T12:58:49.408Z,24.45
2022-08-05T13:02:04.265Z,24.18
2022-08-05T13:06:29.242Z,24.47
2022-08-05T13:08:57.814Z,24.52
2022-08-05T13:12:01.731Z,24.87
2022-08-05T13:14:24.857Z,24.54
2022-08-05T13:17:31.516Z,23.76
2022-08-05T13:20:09.259Z,24.29
2022-08-05T13:22:40.678Z,24.37
2022-08-05T13:25:18.904Z,25.20
2022-08-05T13:27:53.094Z,26.48
2022-08-05T13:30:35.144Z,25.27
2022-08-05T13:33:03.808Z,24.91
2022-08-05T13:35:47.176Z,25.08
2022-08-05T13:38:30.669Z,24.60
2022-08-05T13:41:01.492Z,24.55
2022-08-05T13:46:50.714Z,24.80
2022-08-05T13:49:10.190Z,25.12
2022-08-05T13:51:40.874Z,24.71
2022-08-05T13:54:12.343Z,25.19
2022-08-05T13:56:51.482Z,24.81
2022-08-05T13:59:25.117Z,24.40
2022-08-05T14:01:58.190Z,24.60
2022-08-05T14:04:51.351Z,25.35
2022-08-05T14:07:55.766Z,24.72
2022-08-05T14:10:18.822Z,25.32
2022-08-05T14:12:48.447Z,25.69
2022-08-05T14:16:07.194Z,25.13
2022-08-05T14:18:04.436Z,24.77
2022-08-05T14:20:32.139Z,25.08
2022-08-05T14:22:59.970Z,24.94
2022-08-05T14:25:30.132Z,25.15
2022-08-05T14:27:58.398Z,24.96
2022-08-05T14:30:27.780Z,24.96
2022-08-05T14:32:56.897Z,25.59
2022-08-05T14:35:37.577Z,25.65
2022-08-05T14:38:27.650Z,24.52
2022-08-05T14:40:59.070Z,24.49
2022-08-05T14:43:59.722Z,24.80
2022-08-05T14:46:13.466Z,25.90
2022-08-05T14:48:40.678Z,25.19
2022-08-05T14:51:08.659Z,25.10
2022-08-05T14:53:44.540Z,25.02
2022-08-05T14:56:13.366Z,25.15
2022-08-05T14:58:47.901Z,25.40
2022-08-05T15:01:37.095Z,24.92
2022-08-05T15:04:11.524Z,24.99
2022-08-05T15:06:40.471Z,24.98
2022-08-05T15:09:07.791Z,25.40
2022-08-05T15:11:52.311Z,25.14
2022-08-05T15:14:34.719Z,25.66
2022-08-05T15:17:41.782Z,25.68
2022-08-05T15:19:57.004Z,25.20
2022-08-05T15:22:24.349Z,25.29
2022-08-05T15:24:55.816Z,25.45
2022-08-05T15:27:25.428Z,25.33
2022-08-05T15:29:54.259Z,25.52
2022-08-05T15:32:28.914Z,25.86
2022-08-05T15:34:57.046Z,25.25
2022-08-05T15:38:09.276Z,25.69
2022-08-05T15:41:03.017Z,26.25
2022-08-05T15:43:12.460Z,26.16
2022-08-05T15:45:45.497Z,26.15
2022-08-05T15:48:14.114Z,26.36
2022-08-05T15:50:43.591Z,26.06
2022-08-05T15:53:12.796Z,25.93
2022-08-05T15:56:04.172Z,26.37
2022-08-05T15:58:29.295Z,26.10
2022-08-05T16:01:11.726Z,26.17
2022-08-05T16:03:48.385Z,26.04
2022-08-05T16:06:19.864Z,25.97
2022-08-05T16:08:51.176Z,26.68
2022-08-05T16:11:42.587Z,26.80
2022-08-05T16:14:09.076Z,26.81
2022-08-05T16:16:36.519Z,26.56
2022-08-05T16:19:04.700Z,27.23
2022-08-05T16:21:59.371Z,26.93
2022-08-05T16:24:39.864Z,27.32
2022-08-05T16:27:09.825Z,27.34
2022-08-05T16:29:50.049Z,27.31
2022-08-05T16:32:23.346Z,27.44
2022-08-05T16:34:57.674Z,27.17
2022-08-05T16:38:02.364Z,27.48
2022-08-05T16:40:28.759Z,27.45
2022-08-05T16:42:56.705Z,27.47
2022-08-05T16:46:04.636Z,27.88
2022-08-05T16:48:11.072Z,27.50
2022-08-05T16:50:53.619Z,27.62
2022-08-05T16:53:22.465Z,28.08
2022-08-05T16:55:58.945Z,28.05
2022-08-05T16:58:26.705Z,28.04
2022-08-05T17:00:53.913Z,28.55
2022-08-05T17:03:22.126Z,28.48
2022-08-05T17:05:53.997Z,28.31
2022-08-05T17:08:36.072Z,28.37
2022-08-05T17:11:16.478Z,28.40
2022-08-05T17:13:45.626Z,28.91
2022-08-05T17:16:32.974Z,29.01
2022-08-05T17:19:00.594Z,29.66
2022-08-05T17:21:36.271Z,29.46
2022-08-05T17:24:19.581Z,29.25
2022-08-05T17:26:57.787Z,29.60
2022-08-05T17:29:39.977Z,29.90
2022-08-05T17:32:11.957Z,30.24
2022-08-05T17:34:49.139Z,30.33
2022-08-05T17:37:39.539Z,30.36
2022-08-05T17:40:10.374Z,30.93
2022-08-05T17:42:42.894Z,30.91
2022-08-05T17:45:21.049Z,31.07
2022-08-05T17:47:54.643Z,31.48
2022-08-05T17:50:28.571Z,31.63
2022-08-05T17:52:59.430Z,31.80
2022-08-05T17:55:37.437Z,32.48
2022-08-05T17:58:09.884Z,33.47
2022-08-05T18:00:44.513Z,33.89
2022-08-05T18:03:28.180Z,34.11
2022-08-05T18:06:04.593Z,34.54
2022-08-05T18:08:33.542Z,35.73
2022-08-05T18:11:03.191Z,35.57
2022-08-05T18:13:36.870Z,36.10
2022-08-05T18:16:13.337Z,36.31
2022-08-05T18:18:41.833Z,36.63
2022-08-05T18:21:20.089Z,36.86
2022-08-05T18:23:52.340Z,37.02
2022-08-05T18:26:29.387Z,36.58
2022-08-05T18:28:59.676Z,38.42
2022-08-05T18:31:33.926Z,39.21
2022-08-05T18:34:05.971Z,39.73
2022-08-05T18:36:35.431Z,39.99
2022-08-05T18:39:09.973Z,40.02
2022-08-05T18:42:02.206Z,40.11
2022-08-05T18:44:35.569Z,39.49
2022-08-05T18:47:16.280Z,39.90
2022-08-05T18:50:01.671Z,39.59
2022-08-05T18:52:33.620Z,39.68
2022-08-05T18:55:06.238Z,38.68
2022-08-05T18:57:50.053Z,39.43
2022-08-05T19:00:28.736Z,39.15
2022-08-05T19:03:04.142Z,39.68
2022-08-05T19:06:13.217Z,40.12
2022-08-05T19:08:21.900Z,40.08
2022-08-05T19:10:59.384Z,40.88
2022-08-05T19:13:27.083Z,40.74
2022-08-05T19:16:03.395Z,40.40
2022-08-05T19:18:31.770Z,40.18
2022-08-05T19:20:59.785Z,40.15
2022-08-05T19:24:05.635Z,40.27
2022-08-05T19:26:18.792Z,39.73
2022-08-05T19:28:46.201Z,39.77
2022-08-05T19:31:17.941Z,39.93
2022-08-05T19:33:48.435Z,40.11
2022-08-05T19:36:26.579Z,39.10
2022-08-05T19:38:58.789Z,37.62
2022-08-05T19:42:05.883Z,37.67
2022-08-05T19:44:15.621Z,37.61
2022-08-05T19:46:43.717Z,36.76
2022-08-05T19:49:12.463Z,36.17
2022-08-05T19:52:08.628Z,36.19
2022-08-05T19:54:34.240Z,36.57
2022-08-05T19:57:09.438Z,36.83
2022-08-05T19:59:56.394Z,37.14
2022-08-05T20:02:30.322Z,36.97
2022-08-05T20:04:59.724Z,36.95
2022-08-05T20:07:46.021Z,36.33
2022-08-05T20:10:17.084Z,36.43
2022-08-05T20:12:48.384Z,36.10
2022-08-05T20:15:48.468Z,35.82
2022-08-05T20:18:10.430Z,35.73
2022-08-05T20:20:55.323Z,35.18
2022-08-05T20:23:40.033Z,34.99
2022-08-05T20:26:16.485Z,34.95
2022-08-05T20:28:51.038Z,35.02
2022-08-05T20:31:21.407Z,35.07
2022-08-05T20:33:51.096Z,34.97
2022-08-05T20:36:19.117Z,35.40
2022-08-05T20:38:54.469Z,35.60
2022-08-05T20:41:43.233Z,36.02
2022-08-05T20:44:18.808Z,36.65
2022-08-05T20:46:48.097Z,37.00
2022-08-05T20:49:15.294Z,37.28
2022-08-05T20:51:53.368Z,37.73
2022-08-05T20:54:22.567Z,37.41
2022-08-05T20:56:52.993Z,36.97
2022-08-05T20:59:27.082Z,37.23
2022-08-05T21:02:07.682Z,37.43
2022-08-05T21:04:36.531Z,37.37
2022-08-05T21:07:05.068Z,37.65
2022-08-05T21:09:35.742Z,37.65
2022-08-05T21:12:07.339Z,36.70
2022-08-05T21:14:38.463Z,36.94
2022-08-05T21:17:06.257Z,36.60
2022-08-05T21:19:46.898Z,37.05
2022-08-05T21:22:23.166Z,36.94
2022-08-05T21:24:52.520Z,37.04
2022-08-05T21:27:27.093Z,37.80
2022-08-05T21:29:56.311Z,37.77
2022-08-05T21:32:27.935Z,37.96
2022-08-05T21:35:17.459Z,37.98
2022-08-05T21:37:52.942Z,38.82
2022-08-05T21:40:24.795Z,39.18
2022-08-05T21:42:53.583Z,39.33
2022-08-05T21:45:24.880Z,39.00
2022-08-05T21:48:09.611Z,39.48
2022-08-05T21:50:37.390Z,39.88
2022-08-05T21:53:17.399Z,39.36
2022-08-05T21:56:06.211Z,39.00
2022-08-05T21:58:32.520Z,39.79
2022-08-05T22:01:00.610Z,40.40
2022-08-05T22:03:52.035Z,40.24
2022-08-05T22:06:22.770Z,40.75
2022-08-05T22:08:52.006Z,40.41
2022-08-05T22:11:34.468Z,41.16
2022-08-05T22:14:05.760Z,41.23
2022-08-05T22:16:56.812Z,41.31
2022-08-05T22:20:00.166Z,41.37
2022-08-05T22:22:15.554Z,41.65
2022-08-05T22:25:01.842Z,41.39
2022-08-05T22:28:10.258Z,41.79
2022-08-05T22:30:35.399Z,42.63
2022-08-05T22:33:15.172Z,42.28
2022-08-05T22:35:48.607Z,41.84
2022-08-05T22:38:19.628Z,41.68
2022-08-05T22:40:49.368Z,42.99
2022-08-05T22:43:37.432Z,42.76
2022-08-05T22:46:13.149Z,43.31
2022-08-05T22:48:43.843Z,42.82
2022-08-05T22:51:22.491Z,43.11
2022-08-05T22:53:51.068Z,43.06
2022-08-05T22:56:30.103Z,43.59
2022-08-05T22:59:04.170Z,44.16
2022-08-05T23:02:04.147Z,44.40
2022-08-05T23:04:32.626Z,44.24
2022-08-05T23:06:59.834Z,43.71
2022-08-05T23:09:57.198Z,44.41
2022-08-05T23:12:17.822Z,44.35
2022-08-05T23:14:45.247Z,44.35
2022-08-05T23:17:34.202Z,44.31
2022-08-05T23:20:16.350Z,44.25
2022-08-05T23:22:47.781Z,43.93
2022-08-05T23:25:52.764Z,44.27
2022-08-05T23:31:16.177Z,44.93
2022-08-05T23:34:03.879Z,44.63
2022-08-05T23:36:39.866Z,45.63
2022-08-05T23:39:17.097Z,46.00
2022-08-05T23:41:51.902Z,46.50
2022-08-05T23:44:19.753Z,46.47
2022-08-05T23:46:52.291Z,46.82
2022-08-05T23:49:23.775Z,47.30
2022-08-05T23:52:19.585Z,47.18
2022-08-05T23:54:49.374Z,47.00
2022-08-05T23:57:16.593Z,47.28
